createdAt,value
2023-05-02T00:04:14.710Z,18.16
2023-05-02T00:09:17.513Z,17.74
2023-05-02T00:14:33.080Z,17.47
2023-05-02T00:19:31.769Z,17.27
2023-05-02T00:24:30.424Z,17.38
2023-05-02T00:29:29.102Z,17.24
2023-05-02T00:34:32.184Z,17.11
2023-05-02T00:39:30.942Z,17.18
2023-05-02T00:44:30.066Z,17.21
2023-05-02T00:49:29.221Z,17.13
2023-05-02T00:54:29.924Z,17.04
2023-05-02T00:59:29.551Z,17.00
2023-05-02T01:04:40.538Z,17.03
2023-05-02T01:09:53.673Z,16.91
2023-05-02T01:14:56.792Z,16.96
2023-05-02T01:20:00.056Z,17.12
2023-05-02T01:25:10.336Z,17.18
2023-05-02T01:30:13.425Z,17.28
2023-05-02T01:35:12.791Z,17.37
2023-05-02T01:40:13.380Z,17.39
2023-05-02T01:45:15.300Z,17.42
2023-05-02T01:50:17.950Z,17.42
2023-05-02T01:55:18.835Z,17.41
2023-05-02T02:00:20.852Z,17.41
2023-05-02T02:05:23.688Z,17.36
2023-05-02T02:10:24.203Z,17.27
2023-05-02T02:15:29.249Z,17.21
2023-05-02T02:20:29.590Z,17.16
2023-05-02T02:25:28.809Z,17.04
2023-05-02T02:30:28.989Z,17.03
2023-05-02T02:35:32.822Z,16.97
2023-05-02T02:40:36.143Z,16.93
2023-05-02T02:45:44.845Z,16.87
2023-05-02T02:50:53.881Z,16.83
2023-05-02T02:55:59.432Z,16.77
2023-05-02T03:01:02.776Z,16.73
2023-05-02T03:06:02.005Z,16.66
2023-05-02T03:11:01.096Z,16.59
2023-05-02T03:16:40.490Z,16.48
2023-05-02T03:21:46.238Z,16.33
2023-05-02T03:26:50.252Z,16.29
2023-05-02T03:31:55.090Z,16.34
2023-05-02T03:36:56.736Z,16.40
2023-05-02T03:41:55.457Z,16.33
2023-05-02T03:46:56.220Z,16.23
2023-05-02T03:51:57.429Z,16.22
2023-05-02T03:57:01.803Z,16.19
2023-05-02T04:02:03.004Z,16.17
2023-05-02T04:07:22.398Z,16.23
2023-05-02T04:12:28.735Z,16.16
2023-05-02T04:17:31.153Z,16.12
2023-05-02T04:22:31.491Z,16.17
2023-05-02T04:27:35.179Z,16.20
2023-05-02T04:32:35.084Z,16.29
2023-05-02T04:37:38.151Z,16.43
2023-05-02T04:42:37.628Z,16.52
2023-05-02T04:47:52.340Z,16.55
2023-05-02T04:52:52.757Z,16.58
2023-05-02T04:57:52.863Z,16.57
2023-05-02T05:02:52.389Z,16.59
2023-05-02T05:07:52.682Z,16.65
2023-05-02T05:12:53.604Z,16.65
2023-05-02T05:17:53.218Z,16.65
2023-05-02T05:22:53.665Z,16.73
2023-05-02T05:27:55.334Z,16.77
2023-05-02T05:32:54.949Z,16.79
2023-05-02T05:37:55.150Z,16.91
2023-05-02T05:42:54.009Z,16.98
2023-05-02T05:47:58.263Z,17.05
2023-05-02T05:53:01.502Z,17.17
2023-05-02T05:58:00.454Z,17.28
2023-05-02T06:02:59.372Z,17.40
2023-05-02T06:08:05.201Z,17.41
2023-05-02T06:13:06.402Z,17.49
2023-05-02T06:18:08.701Z,17.64
2023-05-02T06:23:09.066Z,17.76
2023-05-02T06:28:09.581Z,17.83
2023-05-02T06:33:08.464Z,17.95
2023-05-02T06:38:08.538Z,18.07
2023-05-02T06:43:07.428Z,18.23
2023-05-02T06:48:06.585Z,18.38
2023-05-02T06:53:06.018Z,18.52
2023-05-02T06:58:06.123Z,18.68
2023-05-02T07:03:05.426Z,18.77
2023-05-02T07:08:05.864Z,18.90
2023-05-02T07:13:06.068Z,19.07
2023-05-02T07:18:05.245Z,19.17
2023-05-02T07:23:04.033Z,19.43
2023-05-02T07:28:02.835Z,19.73
2023-05-02T07:33:03.173Z,19.60
2023-05-02T07:38:01.985Z,19.99
2023-05-02T07:43:02.876Z,20.17
2023-05-02T07:48:04.041Z,20.35
2023-05-02T07:53:03.510Z,20.51
2023-05-02T07:58:02.419Z,20.67
2023-05-02T08:03:02.732Z,21.07
2023-05-02T08:08:02.069Z,21.27
2023-05-02T08:13:00.837Z,21.57
2023-05-02T08:17:59.962Z,21.78
2023-05-02T08:23:00.605Z,21.86
2023-05-02T08:27:59.460Z,22.27
2023-05-02T08:32:58.245Z,22.82
2023-05-02T08:37:57.175Z,23.49
2023-05-02T08:42:57.579Z,24.14
2023-05-02T08:47:58.088Z,25.40
2023-05-02T08:52:58.818Z,26.53
2023-05-02T08:57:59.699Z,27.59
2023-05-02T09:03:07.843Z,28.34
2023-05-02T09:08:07.007Z,28.96
2023-05-02T09:13:38.012Z,30.10
2023-05-02T09:18:37.790Z,30.23
2023-05-02T09:23:38.339Z,30.25
2023-05-02T09:28:43.276Z,31.38
2023-05-02T09:33:42.549Z,32.20
2023-05-02T09:38:44.677Z,32.39
2023-05-02T09:43:45.337Z,31.85
2023-05-02T09:48:54.755Z,32.65
2023-05-02T09:53:53.998Z,32.72
2023-05-02T09:59:13.749Z,32.65
2023-05-02T10:04:16.571Z,33.27
2023-05-02T10:09:20.807Z,34.35
2023-05-02T10:14:23.105Z,34.09
2023-05-02T10:19:30.341Z,33.82
2023-05-02T10:24:30.020Z,32.51
2023-05-02T10:29:31.040Z,33.11
2023-05-02T10:34:33.332Z,33.66
2023-05-02T10:39:33.757Z,33.87
2023-05-02T10:44:37.751Z,34.98
2023-05-02T10:49:51.292Z,34.69
2023-05-02T10:54:52.221Z,35.51
2023-05-02T10:59:52.327Z,36.19
2023-05-02T11:05:02.066Z,35.95
2023-05-02T11:10:29.327Z,37.12
2023-05-02T11:16:00.226Z,37.13
2023-05-02T11:21:27.564Z,37.48
2023-05-02T11:26:26.682Z,35.87
2023-05-02T11:32:04.125Z,35.13
2023-05-02T11:37:12.557Z,35.41
2023-05-02T11:42:11.286Z,36.16
2023-05-02T11:47:10.556Z,36.21
2023-05-02T11:52:10.997Z,36.83
2023-05-02T11:57:09.855Z,36.71
2023-05-02T12:02:08.802Z,37.47
2023-05-02T12:12:08.114Z,37.41
2023-05-02T12:17:06.946Z,36.85
2023-05-02T12:22:07.890Z,36.99
2023-05-02T12:27:12.527Z,36.53
2023-05-02T12:32:11.547Z,37.29
2023-05-02T12:37:11.891Z,37.70
2023-05-02T12:42:12.999Z,38.22
2023-05-02T12:47:13.216Z,38.62
2023-05-02T12:52:11.926Z,39.05
2023-05-02T12:57:11.969Z,39.45
2023-05-02T13:02:10.685Z,39.47
2023-05-02T13:07:09.436Z,39.25
2023-05-02T13:12:08.547Z,38.86
2023-05-02T13:17:09.980Z,39.11
2023-05-02T13:22:08.876Z,38.98
2023-05-02T13:27:07.522Z,38.18
2023-05-02T13:32:06.308Z,37.69
2023-05-02T13:37:06.502Z,38.14
2023-05-02T13:42:06.492Z,39.03
2023-05-02T13:47:05.236Z,37.29
2023-05-02T13:52:04.448Z,37.38
2023-05-02T13:57:05.621Z,37.96
2023-05-02T14:02:04.840Z,38.48
2023-05-02T14:07:04.317Z,38.53
2023-05-02T14:12:08.403Z,38.22
2023-05-02T14:17:07.091Z,38.40
2023-05-02T14:22:05.996Z,38.63
2023-05-02T14:27:06.890Z,38.12
2023-05-02T14:32:07.318Z,37.35
2023-05-02T14:37:06.196Z,38.09
2023-05-02T14:42:08.916Z,37.58
2023-05-02T14:47:09.163Z,37.65
2023-05-02T14:52:10.177Z,37.76
2023-05-02T14:57:09.122Z,37.94
2023-05-02T15:02:09.279Z,38.28
2023-05-02T15:07:08.481Z,38.30
2023-05-02T15:12:07.248Z,38.18
2023-05-02T15:17:08.653Z,37.68
2023-05-02T15:22:11.632Z,37.61
2023-05-02T15:27:11.311Z,37.32
2023-05-02T15:32:10.122Z,36.86
2023-05-02T15:37:10.272Z,36.14
2023-05-02T15:42:09.017Z,35.52
2023-05-02T15:47:08.540Z,34.95
2023-05-02T15:52:08.000Z,34.45
2023-05-02T15:57:08.232Z,33.88
2023-05-02T16:02:07.224Z,33.76
2023-05-02T16:07:06.246Z,33.11
2023-05-02T16:12:07.104Z,32.24
2023-05-02T16:17:08.316Z,31.32
2023-05-02T16:22:07.061Z,30.01
2023-05-02T16:27:05.797Z,29.78
2023-05-02T16:32:04.509Z,29.79
2023-05-02T16:37:05.124Z,29.14
2023-05-02T16:42:03.894Z,28.11
2023-05-02T16:47:02.801Z,27.86
2023-05-02T16:52:01.562Z,27.39
2023-05-02T16:57:03.268Z,26.98
2023-05-02T17:02:02.463Z,26.10
2023-05-02T17:07:01.510Z,25.64
2023-05-02T17:12:02.946Z,25.41
2023-05-02T17:17:02.214Z,24.90
2023-05-02T17:22:01.633Z,24.56
2023-05-02T17:27:02.914Z,24.41
2023-05-02T17:32:01.980Z,24.33
2023-05-02T17:37:00.777Z,23.88
2023-05-02T17:41:59.606Z,24.04
2023-05-02T17:47:00.082Z,23.60
2023-05-02T17:51:59.007Z,23.33
2023-05-02T17:56:58.203Z,22.98
2023-05-02T18:01:57.398Z,22.69
2023-05-02T18:06:57.616Z,22.79
2023-05-02T18:11:57.071Z,22.67
2023-05-02T18:16:56.500Z,22.44
2023-05-02T18:21:55.155Z,22.26
2023-05-02T18:26:55.444Z,22.17
2023-05-02T18:31:54.371Z,22.10
2023-05-02T18:36:53.080Z,21.77
2023-05-02T18:41:51.714Z,21.75
2023-05-02T18:46:52.009Z,21.52
2023-05-02T18:51:50.832Z,21.39
2023-05-02T18:56:49.580Z,21.29
2023-05-02T19:01:49.314Z,21.11
2023-05-02T19:06:49.501Z,20.87
2023-05-02T19:11:48.294Z,20.65
2023-05-02T19:16:47.148Z,20.56
2023-05-02T19:21:50.772Z,20.25
2023-05-02T19:26:49.777Z,19.86
2023-05-02T19:31:48.741Z,19.84
2023-05-02T19:36:47.493Z,19.81
2023-05-02T19:41:50.389Z,19.68
2023-05-02T19:46:49.336Z,19.31
2023-05-02T19:51:49.374Z,19.12
2023-05-02T19:56:49.594Z,19.22
2023-05-02T20:01:48.720Z,19.09
2023-05-02T20:06:47.478Z,18.71
2023-05-02T20:11:46.172Z,18.58
2023-05-02T20:16:47.037Z,18.40
2023-05-02T20:21:45.825Z,18.20
2023-05-02T20:26:44.518Z,17.98
2023-05-02T20:31:43.517Z,17.98
2023-05-02T20:36:43.733Z,18.12
2023-05-02T20:41:42.474Z,18.12
2023-05-02T20:46:41.287Z,18.05
2023-05-02T20:51:40.083Z,18.02
2023-05-02T20:56:40.897Z,17.65
2023-05-02T21:01:39.888Z,17.48
2023-05-02T21:06:38.885Z,17.37
2023-05-02T21:11:37.624Z,17.49
2023-05-02T21:16:37.897Z,17.42
2023-05-02T21:21:36.559Z,17.52
2023-05-02T21:26:35.326Z,17.51
2023-05-02T21:31:34.252Z,17.42
2023-05-02T21:36:34.370Z,17.61
2023-05-02T21:41:33.068Z,17.75
2023-05-02T21:46:31.806Z,17.63
2023-05-02T21:51:30.749Z,17.25
2023-05-02T21:56:30.857Z,17.08
2023-05-02T22:01:29.709Z,17.07
2023-05-02T22:06:28.711Z,16.95
2023-05-02T22:11:31.523Z,16.93
2023-05-02T22:16:30.186Z,16.58
2023-05-02T22:21:29.028Z,16.55
2023-05-02T22:26:27.800Z,16.56
2023-05-02T22:31:27.988Z,16.59
2023-05-02T22:36:27.847Z,16.38
2023-05-02T22:41:26.536Z,16.46
2023-05-02T22:46:25.287Z,16.41
2023-05-02T22:51:25.726Z,16.60
2023-05-02T22:56:24.638Z,16.66
2023-05-02T23:01:23.489Z,16.60
2023-05-02T23:06:22.289Z,16.54
2023-05-02T23:11:22.489Z,16.71
2023-05-02T23:16:21.344Z,16.67
2023-05-02T23:21:20.137Z,16.61
2023-05-02T23:26:18.947Z,16.58
2023-05-02T23:31:19.100Z,16.62
2023-05-02T23:36:18.152Z,16.42
2023-05-02T23:41:16.819Z,16.39
2023-05-02T23:46:15.521Z,16.31
2023-05-02T23:51:15.577Z,16.19
2023-05-02T23:56:14.328Z,16.22
